createdAt,value
2023-04-10T09:28:23.654Z,101112.25
2023-04-10T09:33:30.560Z,101110.06
2023-04-10T09:38:36.155Z,101130.34
2023-04-10T09:43:45.894Z,101135.88
2023-04-10T09:48:59.561Z,101113.38
2023-04-10T09:54:04.810Z,101089.63
2023-04-10T09:59:12.592Z,101093.25
2023-04-10T10:04:18.499Z,101086.78
2023-04-10T10:09:23.908Z,101080.25
2023-04-10T10:14:32.063Z,101087.50
2023-04-10T10:19:41.950Z,101080.97
2023-04-10T10:24:49.348Z,101064.63
2023-04-10T10:29:57.949Z,101069.47
2023-04-10T10:35:03.543Z,101047.22
2023-04-10T10:40:15.064Z,101025.94
2023-04-10T10:45:26.846Z,101018.03
2023-04-10T10:50:57.254Z,100999.50
2023-04-10T10:56:02.904Z,100971.88
2023-04-10T11:01:11.258Z,100964.50
2023-04-10T11:06:20.229Z,100962.09
2023-04-10T11:11:27.572Z,100937.91
2023-04-10T11:16:50.917Z,100930.72
2023-04-10T11:22:10.798Z,100910.72
2023-04-10T11:27:44.992Z,100918.50
2023-04-10T11:32:52.977Z,100906.94
2023-04-10T11:38:17.693Z,100892.41
2023-04-10T11:43:22.942Z,100895.06
2023-04-10T11:48:31.501Z,100884.53
2023-04-10T11:53:36.708Z,100874.75
2023-04-10T11:58:41.926Z,100865.56
2023-04-10T12:03:49.929Z,100860.84
2023-04-10T12:08:55.881Z,100847.09
2023-04-10T12:14:01.300Z,100833.56
2023-04-10T12:19:09.105Z,100822.56
2023-04-10T12:24:14.661Z,100812.81
2023-04-10T12:29:19.884Z,100800.91
2023-04-10T12:34:27.863Z,100804.91
2023-04-10T12:39:33.169Z,100794.84
2023-04-10T12:44:38.694Z,100791.25
2023-04-10T12:49:50.187Z,100793.09
2023-04-10T12:54:55.736Z,100780.00
2023-04-10T13:00:03.265Z,100773.00
2023-04-10T13:05:12.490Z,100761.13
2023-04-10T13:10:17.700Z,100743.09
2023-04-10T13:15:23.019Z,100737.47
2023-04-10T13:20:31.315Z,100726.63
2023-04-10T13:25:40.027Z,100730.47
2023-04-10T13:30:45.667Z,100718.59
2023-04-10T13:35:53.611Z,100705.38
2023-04-10T13:40:58.964Z,100695.38
2023-04-10T13:46:04.178Z,100685.16
2023-04-10T13:51:12.115Z,100670.69
2023-04-10T13:56:17.408Z,100664.53
2023-04-10T14:01:22.905Z,100654.41
2023-04-10T14:06:31.452Z,100636.25
2023-04-10T14:11:36.737Z,100628.56
2023-04-10T14:16:42.119Z,100640.19
2023-04-10T14:21:50.173Z,100631.63
2023-04-10T14:26:58.539Z,100615.78
2023-04-10T17:04:20.720Z,100436.97
2023-04-10T17:09:25.993Z,100425.31
2023-04-10T17:14:31.425Z,100403.41
2023-04-10T17:19:39.541Z,100389.06
2023-04-10T17:24:45.556Z,100400.84
2023-04-10T17:29:50.982Z,100382.56
2023-04-10T17:34:59.293Z,100373.75
2023-04-10T17:40:05.125Z,100370.25
2023-04-10T17:45:11.948Z,100363.25
2023-04-10T17:50:20.317Z,100361.31
2023-04-10T17:55:25.681Z,100368.19
2023-04-10T18:00:31.303Z,100361.31
2023-04-10T18:05:39.972Z,100376.03
2023-04-10T18:10:45.346Z,100357.22
2023-04-10T18:15:50.880Z,100357.38
2023-04-10T21:21:49.226Z,100456.66
2023-04-10T21:26:54.466Z,100431.22
2023-04-10T21:31:59.954Z,100437.25
2023-04-10T21:37:07.818Z,100399.09
2023-04-10T21:42:13.120Z,100404.88
2023-04-10T21:47:18.386Z,100429.59
2023-04-10T21:52:26.232Z,100437.31
2023-04-10T21:57:31.739Z,100414.97
2023-04-10T22:02:37.339Z,100420.13
2023-04-10T22:07:45.224Z,100392.69
2023-04-10T22:12:50.610Z,100337.06
2023-04-10T22:17:56.216Z,100331.25
2023-04-10T22:23:05.123Z,100345.97
2023-04-10T22:28:10.622Z,100327.28
